createdAt,value
2019-02-02T00:00:31.185Z,17.40
2019-02-02T00:01:31.120Z,16.30
2019-02-02T00:02:31.054Z,16.10
2019-02-02T00:03:30.985Z,16.50
2019-02-02T00:04:30.912Z,16.90
2019-02-02T00:05:30.862Z,15.60
2019-02-02T00:06:30.779Z,17.80
2019-02-02T00:07:30.708Z,16.50
2019-02-02T00:08:30.652Z,16.60
2019-02-02T00:09:30.574Z,17.30
2019-02-02T00:10:30.505Z,16.90
2019-02-02T00:11:30.436Z,16.90
2019-02-02T00:12:30.369Z,16.40
2019-02-02T00:13:30.302Z,17.40
2019-02-02T00:14:30.249Z,17.50
2019-02-02T00:15:30.188Z,16.80
2019-02-02T00:16:30.120Z,17.10
2019-02-02T00:17:30.029Z,16.80
2019-02-02T00:18:29.960Z,16.50
2019-02-02T00:19:29.894Z,16.80
2019-02-02T00:20:29.824Z,17.10
2019-02-02T00:21:29.755Z,17.60
2019-02-02T00:22:29.689Z,17.40
2019-02-02T00:23:29.624Z,16.80
2019-02-02T00:24:29.549Z,17.00
2019-02-02T00:25:29.484Z,16.40
2019-02-02T00:26:29.420Z,16.60
2019-02-02T00:27:40.833Z,16.60
2019-02-02T00:28:29.279Z,17.20
2019-02-02T00:29:29.216Z,17.00
2019-02-02T00:30:29.140Z,16.90
2019-02-02T00:31:29.079Z,16.70
2019-02-02T00:32:29.008Z,18.50
2019-02-02T00:33:28.941Z,16.80
2019-02-02T00:34:28.870Z,18.30
2019-02-02T00:35:28.803Z,17.60
2019-02-02T00:36:28.736Z,17.80
2019-02-02T00:37:28.665Z,17.60
2019-02-02T00:38:28.610Z,17.40
2019-02-02T00:39:28.536Z,17.90
2019-02-02T00:40:28.460Z,17.30
2019-02-02T00:41:28.408Z,16.80
2019-02-02T00:42:28.326Z,17.10
2019-02-02T00:43:28.260Z,17.00
2019-02-02T00:44:28.192Z,16.70
2019-02-02T00:45:28.121Z,17.90
2019-02-02T00:46:28.052Z,18.00
2019-02-02T00:47:27.999Z,16.20
2019-02-02T00:48:27.916Z,16.90
2019-02-02T00:49:27.846Z,17.80
2019-02-02T00:50:27.801Z,17.90
2019-02-02T00:51:27.712Z,16.70
2019-02-02T00:52:27.663Z,17.10
2019-02-02T00:53:27.583Z,17.20
2019-02-02T00:54:27.532Z,17.90
2019-02-02T00:55:27.439Z,17.00
2019-02-02T00:56:27.377Z,17.60
2019-02-02T00:57:27.305Z,16.50
2019-02-02T00:58:27.236Z,17.00
2019-02-02T00:59:27.173Z,17.00
2019-02-02T01:00:27.097Z,17.20
2019-02-02T01:01:27.030Z,17.60
2019-02-02T01:02:27.057Z,16.60
2019-02-02T01:03:26.897Z,17.00
2019-02-02T01:04:26.842Z,17.10
2019-02-02T01:05:26.758Z,16.70
2019-02-02T01:06:26.702Z,18.00
2019-02-02T01:07:26.642Z,16.90
2019-02-02T01:08:26.559Z,16.10
2019-02-02T01:09:26.503Z,16.90
2019-02-02T01:10:26.428Z,17.00
2019-02-02T01:11:26.350Z,16.90
2019-02-02T01:12:26.279Z,17.10
2019-02-02T01:13:26.217Z,16.50
2019-02-02T01:14:26.148Z,17.30
2019-02-02T01:15:26.077Z,16.70
2019-02-02T01:16:26.011Z,17.50
2019-02-02T01:17:25.941Z,17.10
2019-02-02T01:18:25.893Z,18.00
2019-02-02T01:19:25.808Z,16.80
2019-02-02T01:20:25.737Z,16.90
2019-02-02T01:21:25.669Z,17.60
2019-02-02T01:22:25.603Z,17.70
2019-02-02T01:23:25.538Z,16.70
2019-02-02T01:24:25.466Z,17.30
2019-02-02T01:25:25.421Z,17.70
2019-02-02T01:26:25.411Z,18.10
2019-02-02T01:27:25.263Z,16.80
2019-02-02T01:28:25.190Z,16.80
2019-02-02T01:29:25.129Z,17.70
2019-02-02T01:30:25.057Z,17.40
2019-02-02T01:31:24.988Z,17.70
2019-02-02T01:32:24.918Z,17.60
2019-02-02T01:33:24.850Z,17.40
2019-02-02T01:34:24.878Z,17.80
2019-02-02T01:35:24.719Z,18.80
2019-02-02T01:36:24.645Z,19.30
2019-02-02T01:37:24.583Z,19.60
2019-02-02T01:38:24.515Z,18.00
2019-02-02T01:39:24.440Z,17.10
2019-02-02T01:40:24.373Z,16.90
2019-02-02T01:41:24.303Z,17.60
2019-02-02T01:42:24.238Z,18.70
2019-02-02T01:43:24.170Z,18.30
2019-02-02T01:44:24.105Z,18.40
2019-02-02T01:45:24.033Z,18.40
2019-02-02T01:46:23.979Z,17.80
2019-02-02T01:47:23.895Z,17.50
2019-02-02T01:48:23.829Z,18.20
2019-02-02T01:49:23.763Z,17.60
2019-02-02T01:50:23.697Z,17.20
2019-02-02T01:51:23.625Z,17.40
2019-02-02T01:52:23.557Z,18.30
2019-02-02T01:53:23.593Z,17.40
2019-02-02T01:54:23.419Z,16.30
2019-02-02T01:55:23.354Z,18.40
2019-02-02T01:56:23.286Z,17.20
2019-02-02T01:57:23.215Z,17.10
2019-02-02T01:58:23.147Z,17.10
2019-02-02T01:59:23.086Z,16.80
2019-02-02T02:00:23.014Z,17.10
2019-02-02T02:01:22.946Z,16.20
2019-02-02T02:02:22.879Z,17.00
2019-02-02T02:03:22.812Z,16.20
2019-02-02T02:04:22.735Z,16.30
2019-02-02T02:05:22.670Z,16.70
2019-02-02T02:06:22.603Z,16.50
2019-02-02T02:07:22.537Z,16.30
2019-02-02T02:08:22.469Z,16.50
2019-02-02T02:09:22.411Z,17.00
2019-02-02T02:10:22.339Z,17.10
2019-02-02T02:11:22.268Z,16.10
2019-02-02T02:12:22.197Z,17.00
2019-02-02T02:13:22.127Z,15.20
2019-02-02T02:14:22.065Z,17.20
2019-02-02T02:15:21.990Z,17.00
2019-02-02T02:16:21.924Z,16.40
2019-02-02T02:17:21.855Z,16.30
2019-02-02T02:18:21.808Z,16.60
2019-02-02T02:19:21.721Z,16.60
2019-02-02T02:20:24.244Z,17.00
2019-02-02T02:21:21.584Z,16.90
2019-02-02T02:22:21.517Z,16.50
2019-02-02T02:23:21.451Z,17.20
2019-02-02T02:24:21.381Z,16.80
2019-02-02T02:25:21.345Z,17.20
2019-02-02T02:26:21.258Z,16.70
2019-02-02T02:27:21.177Z,16.30
2019-02-02T02:28:27.837Z,17.40
2019-02-02T02:29:21.039Z,15.90
2019-02-02T02:30:20.981Z,16.70
2019-02-02T02:31:20.904Z,16.70
2019-02-02T02:32:20.835Z,15.70
2019-02-02T02:33:20.774Z,16.90
2019-02-02T02:34:20.706Z,16.40
2019-02-02T02:35:20.637Z,17.00
2019-02-02T02:36:20.566Z,16.80
2019-02-02T02:37:20.498Z,16.80
2019-02-02T02:38:20.431Z,16.30
2019-02-02T02:39:20.363Z,17.40
2019-02-02T02:40:20.298Z,17.40
2019-02-02T02:41:20.231Z,16.60
2019-02-02T02:42:20.158Z,17.20
2019-02-02T02:43:20.098Z,16.50
2019-02-02T02:44:20.019Z,17.10
2019-02-02T02:45:19.957Z,16.70
2019-02-02T02:46:19.887Z,16.40
2019-02-02T02:47:19.817Z,17.40
2019-02-02T02:48:19.745Z,16.60
2019-02-02T02:49:19.688Z,16.90
2019-02-02T02:50:19.626Z,16.10
2019-02-02T02:51:19.556Z,16.30
2019-02-02T02:52:19.483Z,17.40
2019-02-02T02:53:19.435Z,16.50
2019-02-02T02:54:19.338Z,16.50
2019-02-02T02:55:19.296Z,16.40
2019-02-02T02:56:19.203Z,16.20
2019-02-02T02:57:19.139Z,16.40
2019-02-02T02:58:19.068Z,16.70
2019-02-02T02:59:18.998Z,16.50
2019-02-02T03:00:18.933Z,16.50
2019-02-02T03:01:18.866Z,16.90
2019-02-02T03:02:18.797Z,16.10
2019-02-02T03:03:18.732Z,16.40
2019-02-02T03:04:18.667Z,15.90
2019-02-02T03:05:18.599Z,16.70
2019-02-02T03:06:18.524Z,16.30
2019-02-02T03:07:19.567Z,15.40
2019-02-02T03:08:18.385Z,16.10
2019-02-02T03:09:18.321Z,15.60
2019-02-02T03:10:18.253Z,17.20
2019-02-02T03:11:18.184Z,16.60
2019-02-02T03:12:18.118Z,16.70
2019-02-02T03:13:18.049Z,16.60
2019-02-02T03:14:17.988Z,15.60
2019-02-02T03:15:17.913Z,16.10
2019-02-02T03:16:17.844Z,16.70
2019-02-02T03:17:17.774Z,16.80
2019-02-02T03:18:17.711Z,16.50
2019-02-02T03:19:17.639Z,16.20
2019-02-02T03:20:17.574Z,16.10
2019-02-02T03:21:17.507Z,16.50
2019-02-02T03:22:17.438Z,16.60
2019-02-02T03:23:17.371Z,15.60
2019-02-02T03:24:17.297Z,15.90
2019-02-02T03:25:17.256Z,16.10
2019-02-02T03:26:17.164Z,16.00
2019-02-02T03:27:17.093Z,16.50
2019-02-02T03:28:17.027Z,16.40
2019-02-02T03:29:16.961Z,16.50
2019-02-02T03:30:16.915Z,16.30
2019-02-02T03:31:16.829Z,15.80
2019-02-02T03:32:16.759Z,15.60
2019-02-02T03:33:16.688Z,15.70
2019-02-02T03:34:16.616Z,16.30
2019-02-02T03:35:16.553Z,16.50
2019-02-02T03:36:16.488Z,15.50
2019-02-02T03:37:16.417Z,16.50
2019-02-02T03:38:16.348Z,15.40
2019-02-02T03:39:16.281Z,16.10
2019-02-02T03:40:16.208Z,15.60
2019-02-02T03:41:16.141Z,16.90
2019-02-02T03:42:16.079Z,15.60
2019-02-02T03:43:16.009Z,15.70
2019-02-02T03:44:15.955Z,15.20
2019-02-02T03:45:15.900Z,16.10
2019-02-02T03:46:15.806Z,16.40
2019-02-02T03:47:15.739Z,16.00
2019-02-02T03:48:15.667Z,15.90
2019-02-02T03:49:15.598Z,16.20
2019-02-02T03:50:15.547Z,15.70
2019-02-02T03:51:15.463Z,15.90
2019-02-02T03:52:15.394Z,15.50
2019-02-02T03:53:15.324Z,16.80
2019-02-02T03:54:15.260Z,15.80
2019-02-02T03:55:15.195Z,15.80
2019-02-02T03:56:15.125Z,15.10
2019-02-02T03:57:15.056Z,15.70
2019-02-02T03:58:14.993Z,16.50
2019-02-02T03:59:14.923Z,15.50
2019-02-02T04:00:14.858Z,15.60
2019-02-02T04:01:14.784Z,15.80
2019-02-02T04:02:14.723Z,16.10
2019-02-02T04:03:14.655Z,16.10
2019-02-02T04:04:14.579Z,15.30
2019-02-02T04:05:14.518Z,16.10
2019-02-02T04:06:14.455Z,16.90
2019-02-02T04:07:14.386Z,16.70
2019-02-02T04:08:14.314Z,15.10
2019-02-02T04:09:14.318Z,16.40
2019-02-02T04:10:14.175Z,15.40
2019-02-02T04:11:14.111Z,15.60
2019-02-02T04:12:14.042Z,15.90
2019-02-02T04:13:13.967Z,15.70
2019-02-02T04:14:13.902Z,15.90
2019-02-02T04:15:13.848Z,15.40
2019-02-02T04:16:13.762Z,15.70
2019-02-02T04:17:13.705Z,16.10
2019-02-02T04:18:13.629Z,15.90
2019-02-02T04:19:13.561Z,16.50
2019-02-02T04:20:13.496Z,16.20
2019-02-02T04:21:13.437Z,16.00
2019-02-02T04:22:13.361Z,15.60
2019-02-02T04:23:13.291Z,15.10
2019-02-02T04:24:13.227Z,16.30
2019-02-02T04:25:13.155Z,15.80
2019-02-02T04:26:13.088Z,15.80
2019-02-02T04:27:13.019Z,15.80
2019-02-02T04:28:12.954Z,16.30
2019-02-02T04:29:17.878Z,15.50
2019-02-02T04:30:12.813Z,15.70
2019-02-02T04:31:12.747Z,16.00
2019-02-02T04:32:12.703Z,15.40
2019-02-02T04:33:12.613Z,15.80
2019-02-02T04:34:12.542Z,16.20
2019-02-02T04:35:12.475Z,15.60
2019-02-02T04:36:12.407Z,16.00
2019-02-02T04:37:12.346Z,16.60
2019-02-02T04:38:12.290Z,15.60
2019-02-02T04:39:12.206Z,15.60
2019-02-02T04:40:12.136Z,15.50
2019-02-02T04:41:12.069Z,15.90
2019-02-02T04:42:12.007Z,15.70
2019-02-02T04:43:11.951Z,15.30
2019-02-02T04:44:11.886Z,14.50
2019-02-02T04:45:11.797Z,16.50
2019-02-02T04:46:11.727Z,16.60
2019-02-02T04:47:11.669Z,15.30
2019-02-02T04:48:11.591Z,15.40
2019-02-02T04:49:11.528Z,15.10
2019-02-02T04:50:11.459Z,16.80
2019-02-02T04:51:11.441Z,15.50
2019-02-02T04:52:11.325Z,15.80
2019-02-02T04:53:11.260Z,16.40
2019-02-02T04:54:11.188Z,16.00
2019-02-02T04:55:11.119Z,16.20
2019-02-02T04:56:11.052Z,15.30
2019-02-02T04:57:10.982Z,16.10
2019-02-02T04:58:10.929Z,17.10
2019-02-02T04:59:10.848Z,16.40
2019-02-02T05:00:10.783Z,15.90
2019-02-02T05:01:10.711Z,15.90
2019-02-02T05:02:10.664Z,17.40
2019-02-02T05:03:10.582Z,16.40
2019-02-02T05:04:10.530Z,15.90
2019-02-02T05:05:10.446Z,15.40
2019-02-02T05:06:10.373Z,16.90
2019-02-02T05:07:10.309Z,16.00
2019-02-02T05:08:10.242Z,15.00
2019-02-02T05:09:10.168Z,15.10
2019-02-02T05:10:10.102Z,16.50
2019-02-02T05:11:10.035Z,15.80
2019-02-02T05:12:09.970Z,15.80
2019-02-02T05:13:09.899Z,16.10
2019-02-02T05:14:09.829Z,15.40
2019-02-02T05:15:09.760Z,15.40
2019-02-02T05:16:09.689Z,15.40
2019-02-02T05:17:09.622Z,15.80
2019-02-02T05:18:09.561Z,16.10
2019-02-02T05:19:09.491Z,15.60
2019-02-02T05:20:09.428Z,16.40
2019-02-02T05:21:09.356Z,15.60
2019-02-02T05:22:09.288Z,16.40
2019-02-02T05:23:09.220Z,16.40
2019-02-02T05:24:09.148Z,16.10
2019-02-02T05:25:09.079Z,16.50
2019-02-02T05:26:09.014Z,17.80
2019-02-02T05:27:08.947Z,16.90
2019-02-02T05:28:08.879Z,16.30
2019-02-02T05:29:08.817Z,16.00
2019-02-02T05:30:08.741Z,16.60
2019-02-02T05:31:08.690Z,17.50
2019-02-02T05:32:08.610Z,16.60
2019-02-02T05:33:08.537Z,17.00
2019-02-02T05:34:08.473Z,16.80
2019-02-02T05:35:08.404Z,16.60
2019-02-02T05:36:08.336Z,16.50
2019-02-02T05:37:08.265Z,16.80
2019-02-02T05:38:08.198Z,17.00
2019-02-02T05:39:08.155Z,16.70
2019-02-02T05:40:08.072Z,16.80
2019-02-02T05:41:07.997Z,16.90
2019-02-02T05:42:07.930Z,16.00
2019-02-02T05:43:07.861Z,16.90
2019-02-02T05:44:07.795Z,16.80
2019-02-02T05:45:07.729Z,16.70
2019-02-02T05:46:07.656Z,17.10
2019-02-02T05:47:07.590Z,16.80
2019-02-02T05:48:07.521Z,16.50
2019-02-02T05:49:07.451Z,18.50
2019-02-02T05:50:07.409Z,16.80
2019-02-02T05:51:07.316Z,17.90
2019-02-02T05:52:07.248Z,17.20
2019-02-02T05:53:07.178Z,17.70
2019-02-02T05:54:07.117Z,17.30
2019-02-02T05:55:07.049Z,17.90
2019-02-02T05:56:06.975Z,17.30
2019-02-02T05:57:06.916Z,17.40
2019-02-02T05:58:06.837Z,16.50
2019-02-02T05:59:06.774Z,17.70
2019-02-02T06:00:06.705Z,16.80
2019-02-02T06:01:06.643Z,17.10
2019-02-02T06:02:06.569Z,17.00
2019-02-02T06:03:06.507Z,16.70
2019-02-02T06:04:06.431Z,16.60
2019-02-02T06:05:06.365Z,17.70
2019-02-02T06:06:06.335Z,17.50
2019-02-02T06:07:06.229Z,18.00
2019-02-02T06:08:06.222Z,17.50
2019-02-02T06:09:06.092Z,18.30
2019-02-02T06:10:06.030Z,17.70
2019-02-02T06:11:05.960Z,17.80
2019-02-02T06:12:05.890Z,17.30
2019-02-02T06:13:05.827Z,17.50
2019-02-02T06:14:05.752Z,17.30
2019-02-02T06:15:05.688Z,18.10
2019-02-02T06:16:05.628Z,17.90
2019-02-02T06:17:05.560Z,17.90
2019-02-02T06:18:05.481Z,17.70
2019-02-02T06:19:05.413Z,18.10
2019-02-02T06:20:05.345Z,17.10
2019-02-02T06:21:05.274Z,16.90
2019-02-02T06:22:05.208Z,17.50
2019-02-02T06:23:05.143Z,17.60
2019-02-02T06:24:05.071Z,16.60
2019-02-02T06:25:05.010Z,17.30
2019-02-02T06:26:04.937Z,18.50
2019-02-02T06:27:04.873Z,17.80
2019-02-02T06:28:04.799Z,17.40
2019-02-02T06:29:04.731Z,17.40
2019-02-02T06:30:04.955Z,17.30
2019-02-02T06:31:04.600Z,17.40
2019-02-02T06:32:11.501Z,17.40
2019-02-02T06:33:04.462Z,15.80
2019-02-02T06:34:04.390Z,18.50
2019-02-02T06:35:04.341Z,16.70
2019-02-02T06:36:04.262Z,17.00
2019-02-02T06:37:04.189Z,16.90
2019-02-02T06:38:04.117Z,18.10
2019-02-02T06:39:04.058Z,16.80
2019-02-02T06:40:03.982Z,18.40
2019-02-02T06:41:03.919Z,17.50
2019-02-02T06:42:03.858Z,17.00
2019-02-02T06:43:03.779Z,17.10
2019-02-02T06:44:03.714Z,16.90
2019-02-02T06:45:03.645Z,17.90
2019-02-02T06:46:03.576Z,17.00
2019-02-02T06:47:03.571Z,17.40
2019-02-02T06:48:03.442Z,17.40
2019-02-02T06:49:03.376Z,17.10
2019-02-02T06:50:03.329Z,18.00
2019-02-02T06:51:03.330Z,17.60
2019-02-02T06:52:03.173Z,17.70
2019-02-02T06:53:03.101Z,17.70
2019-02-02T06:54:03.033Z,18.30
2019-02-02T06:55:02.966Z,17.90
2019-02-02T06:56:02.896Z,19.20
2019-02-02T06:57:02.851Z,18.50
2019-02-02T06:58:02.761Z,19.00
2019-02-02T06:59:02.699Z,18.10
2019-02-02T07:00:02.629Z,18.60
2019-02-02T07:01:02.564Z,18.10
2019-02-02T07:02:02.488Z,17.50
2019-02-02T07:03:02.424Z,18.40
2019-02-02T07:04:02.357Z,17.90
2019-02-02T07:05:02.288Z,17.30
2019-02-02T07:06:02.220Z,18.40
2019-02-02T07:07:02.154Z,18.10
2019-02-02T07:08:02.088Z,17.60
2019-02-02T07:09:02.017Z,17.10
2019-02-02T07:10:01.949Z,17.00
2019-02-02T07:11:01.883Z,18.20
2019-02-02T07:12:01.820Z,17.20
2019-02-02T07:13:01.744Z,18.30
2019-02-02T07:14:01.677Z,17.70
2019-02-02T07:15:01.616Z,17.80
2019-02-02T07:16:01.542Z,17.90
2019-02-02T07:17:01.476Z,18.00
2019-02-02T07:18:01.410Z,18.50
2019-02-02T07:19:01.339Z,17.30
2019-02-02T07:20:01.286Z,18.50
2019-02-02T07:21:01.210Z,18.10
2019-02-02T07:22:01.142Z,18.30
2019-02-02T07:23:01.084Z,17.30
2019-02-02T07:24:01.000Z,18.30
2019-02-02T07:25:00.934Z,18.80
2019-02-02T07:26:00.868Z,19.40
2019-02-02T07:27:00.796Z,18.50
2019-02-02T07:28:00.735Z,18.30
2019-02-02T07:29:00.666Z,17.90
2019-02-02T07:30:00.601Z,19.30
2019-02-02T07:31:00.537Z,18.70
2019-02-02T07:32:00.461Z,18.30
2019-02-02T07:33:00.398Z,18.90
2019-02-02T07:34:00.333Z,17.70
2019-02-02T07:35:00.259Z,17.20
2019-02-02T07:36:00.188Z,18.60
2019-02-02T07:37:00.122Z,17.90
2019-02-02T07:38:00.059Z,18.00
2019-02-02T07:38:59.993Z,16.70
2019-02-02T07:39:59.921Z,17.70
2019-02-02T07:40:59.854Z,17.10
2019-02-02T07:41:59.785Z,17.00
2019-02-02T07:42:59.717Z,16.20
2019-02-02T07:43:59.651Z,17.50
2019-02-02T07:44:59.588Z,17.20
2019-02-02T07:45:59.522Z,17.50
2019-02-02T07:46:59.444Z,16.10
2019-02-02T07:47:59.379Z,17.20
2019-02-02T07:48:59.344Z,16.80
2019-02-02T07:49:59.240Z,17.30
2019-02-02T07:50:59.172Z,16.80
2019-02-02T07:51:59.105Z,16.70
2019-02-02T07:52:59.037Z,17.10
2019-02-02T07:53:58.977Z,16.70
2019-02-02T07:54:58.905Z,16.80
2019-02-02T07:55:58.835Z,17.40
2019-02-02T07:56:58.766Z,17.00
2019-02-02T07:57:58.702Z,16.50
2019-02-02T07:58:58.631Z,16.70
2019-02-02T07:59:58.569Z,15.90
2019-02-02T08:00:58.495Z,16.50
2019-02-02T08:01:58.426Z,16.40
2019-02-02T08:02:58.359Z,16.50
2019-02-02T08:03:58.304Z,16.10
2019-02-02T08:04:58.250Z,16.20
2019-02-02T08:05:58.164Z,16.30
2019-02-02T08:06:58.093Z,17.20
2019-02-02T08:07:58.021Z,18.20
2019-02-02T08:08:57.957Z,17.30
2019-02-02T08:09:57.888Z,16.40
2019-02-02T08:10:57.824Z,17.10
2019-02-02T08:11:57.752Z,16.30
2019-02-02T08:12:57.693Z,16.30
2019-02-02T08:13:57.616Z,16.60
2019-02-02T08:14:57.551Z,17.20
2019-02-02T08:15:57.515Z,16.70
2019-02-02T08:16:57.416Z,16.10
2019-02-02T08:17:57.356Z,16.00
2019-02-02T08:18:57.282Z,15.70
2019-02-02T08:19:57.213Z,15.40
2019-02-02T08:20:57.146Z,16.60
2019-02-02T08:21:57.076Z,16.10
2019-02-02T08:22:57.008Z,15.80
2019-02-02T08:23:56.941Z,16.80
2019-02-02T08:24:56.875Z,16.00
2019-02-02T08:25:56.822Z,16.50
2019-02-02T08:26:56.753Z,15.90
2019-02-02T08:27:56.790Z,16.00
2019-02-02T08:28:56.632Z,16.10
2019-02-02T08:29:56.536Z,16.00
2019-02-02T08:30:56.469Z,16.00
2019-02-02T08:31:56.404Z,16.50
2019-02-02T08:32:56.343Z,16.40
2019-02-02T08:33:56.280Z,16.60
2019-02-02T08:34:56.201Z,16.60
2019-02-02T08:35:56.135Z,17.00
2019-02-02T08:36:56.086Z,16.40
2019-02-02T08:37:56.005Z,16.50
2019-02-02T08:38:55.936Z,17.00
2019-02-02T08:39:55.869Z,15.90
2019-02-02T08:40:55.794Z,16.80
2019-02-02T08:41:55.728Z,16.00
2019-02-02T08:42:55.662Z,17.50
2019-02-02T08:43:55.685Z,17.10
2019-02-02T08:44:55.522Z,16.40
2019-02-02T08:45:55.459Z,17.00
2019-02-02T08:46:55.388Z,16.60
2019-02-02T08:47:55.322Z,15.90
2019-02-02T08:48:55.258Z,16.10
2019-02-02T08:49:55.189Z,15.80
2019-02-02T08:50:55.120Z,17.20
2019-02-02T08:51:55.051Z,16.60
2019-02-02T08:52:54.983Z,16.10
2019-02-02T08:53:54.925Z,17.60
2019-02-02T08:54:54.934Z,17.70
2019-02-02T08:55:54.781Z,17.00
2019-02-02T08:56:54.716Z,17.50
2019-02-02T08:57:54.647Z,17.60
2019-02-02T08:58:54.587Z,17.50
2019-02-02T08:59:54.514Z,17.60
2019-02-02T09:01:03.746Z,17.80
2019-02-02T09:01:54.399Z,16.90
2019-02-02T09:02:54.311Z,17.40
2019-02-02T09:03:54.245Z,17.70
2019-02-02T09:04:54.307Z,17.80
2019-02-02T09:05:54.215Z,17.30
2019-02-02T09:06:54.047Z,16.40
2019-02-02T09:07:53.977Z,17.90
2019-02-02T09:08:53.933Z,17.40
2019-02-02T09:09:53.843Z,16.70
2019-02-02T09:10:53.769Z,17.10
2019-02-02T09:11:53.707Z,16.60
2019-02-02T09:12:53.662Z,17.20
2019-02-02T09:13:53.586Z,17.30
2019-02-02T09:14:53.502Z,16.80
2019-02-02T09:15:53.436Z,16.60
2019-02-02T09:16:53.363Z,17.50
2019-02-02T09:17:53.434Z,17.70
2019-02-02T09:18:53.234Z,16.90
2019-02-02T09:19:53.163Z,17.70
2019-02-02T09:20:53.102Z,17.90
2019-02-02T09:21:53.029Z,17.80
2019-02-02T09:23:02.919Z,18.90
2019-02-02T09:23:52.893Z,18.20
2019-02-02T09:24:52.829Z,18.90
2019-02-02T09:25:52.762Z,18.60
2019-02-02T09:26:52.693Z,19.60
2019-02-02T09:27:52.624Z,18.70
2019-02-02T09:28:52.567Z,18.20
2019-02-02T09:29:52.487Z,17.50
2019-02-02T09:30:52.425Z,16.20
2019-02-02T09:31:52.363Z,16.70
2019-02-02T09:32:52.287Z,16.80
2019-02-02T09:33:52.221Z,17.10
2019-02-02T09:34:52.152Z,16.50
2019-02-02T09:35:52.083Z,16.50
2019-02-02T09:36:52.021Z,16.40
2019-02-02T09:37:51.950Z,16.60
2019-02-02T09:38:51.915Z,16.40
2019-02-02T09:39:51.820Z,15.40
2019-02-02T09:40:51.767Z,15.40
2019-02-02T09:41:51.681Z,15.10
2019-02-02T09:42:51.612Z,15.80
2019-02-02T09:43:51.547Z,15.70
2019-02-02T09:44:51.478Z,15.30
2019-02-02T09:45:51.437Z,14.90
2019-02-02T09:46:51.347Z,15.80
2019-02-02T09:47:51.281Z,15.90
2019-02-02T09:48:51.350Z,15.30
2019-02-02T09:49:51.169Z,14.80
2019-02-02T09:50:51.080Z,16.00
2019-02-02T09:51:51.016Z,15.60
2019-02-02T09:52:50.947Z,16.50
2019-02-02T09:53:53.477Z,15.30
2019-02-02T09:54:50.807Z,15.90
2019-02-02T09:55:50.742Z,16.30
2019-02-02T09:56:50.681Z,16.20
2019-02-02T09:57:50.606Z,15.40
2019-02-02T09:58:50.537Z,16.20
2019-02-02T09:59:50.476Z,15.70
2019-02-02T10:00:50.408Z,15.60
2019-02-02T10:01:50.337Z,16.20
2019-02-02T10:02:50.269Z,15.60
2019-02-02T10:03:50.208Z,15.60
2019-02-02T10:04:50.141Z,14.80
2019-02-02T10:05:50.067Z,16.50
2019-02-02T10:06:50.003Z,14.80
2019-02-02T10:07:49.947Z,15.30
2019-02-02T10:08:49.892Z,15.10
2019-02-02T10:09:49.803Z,15.30
2019-02-02T10:10:49.739Z,15.10
2019-02-02T10:11:49.670Z,16.00
2019-02-02T10:12:49.603Z,16.00
2019-02-02T10:13:52.047Z,15.70
2019-02-02T10:14:49.465Z,15.70
2019-02-02T10:15:49.396Z,15.90
2019-02-02T10:16:49.330Z,15.70
2019-02-02T10:17:49.919Z,15.60
2019-02-02T10:18:49.197Z,15.70
2019-02-02T10:19:49.130Z,17.10
2019-02-02T10:20:49.060Z,16.60
2019-02-02T10:21:49.791Z,16.60
2019-02-02T10:22:48.944Z,16.30
2019-02-02T10:23:48.863Z,16.70
2019-02-02T10:24:48.793Z,17.90
2019-02-02T10:25:48.727Z,17.40
2019-02-02T10:26:48.667Z,16.80
2019-02-02T10:27:48.594Z,16.50
2019-02-02T10:28:48.526Z,17.30
2019-02-02T10:29:48.455Z,16.10
2019-02-02T10:30:48.394Z,17.10
2019-02-02T10:31:48.322Z,16.20
2019-02-02T10:32:48.258Z,17.00
2019-02-02T10:33:48.188Z,16.20
2019-02-02T10:34:48.119Z,16.80
2019-02-02T10:35:48.056Z,15.70
2019-02-02T10:36:47.992Z,16.40
2019-02-02T10:37:47.924Z,17.00
2019-02-02T10:38:47.857Z,16.80
2019-02-02T10:39:47.810Z,16.60
2019-02-02T10:40:47.725Z,16.80
2019-02-02T10:41:47.653Z,17.50
2019-02-02T10:42:47.585Z,16.90
2019-02-02T10:43:47.519Z,17.30
2019-02-02T10:44:47.453Z,17.60
2019-02-02T10:45:47.380Z,16.90
2019-02-02T10:46:47.332Z,17.70
2019-02-02T10:47:47.246Z,18.80
2019-02-02T10:48:47.181Z,17.80
2019-02-02T10:49:47.147Z,19.10
2019-02-02T10:50:47.053Z,18.80
2019-02-02T10:51:46.999Z,18.90
2019-02-02T10:52:46.913Z,18.90
2019-02-02T10:53:46.846Z,18.00
2019-02-02T10:54:46.779Z,17.30
2019-02-02T10:55:46.713Z,18.40
2019-02-02T10:56:46.660Z,18.20
2019-02-02T10:57:46.583Z,18.20
2019-02-02T10:58:46.514Z,18.20
2019-02-02T10:59:48.963Z,18.30
2019-02-02T11:00:46.377Z,17.50
2019-02-02T11:01:51.172Z,16.70
2019-02-02T11:02:46.245Z,16.50
2019-02-02T11:03:46.193Z,17.40
2019-02-02T11:04:46.230Z,16.50
2019-02-02T11:05:46.114Z,16.50
2019-02-02T11:06:46.090Z,16.30
2019-02-02T11:07:45.914Z,16.20
2019-02-02T11:08:45.841Z,16.30
2019-02-02T11:09:45.779Z,17.00
2019-02-02T11:10:45.803Z,16.60
2019-02-02T11:11:45.642Z,16.50
2019-02-02T11:12:45.578Z,16.50
2019-02-02T11:13:45.518Z,18.30
2019-02-02T11:14:45.483Z,17.70
2019-02-02T11:15:45.509Z,17.20
2019-02-02T11:16:45.454Z,17.80
2019-02-02T11:17:45.284Z,17.60
2019-02-02T11:18:45.281Z,17.60
2019-02-02T11:19:45.105Z,17.90
2019-02-02T11:20:45.096Z,17.70
2019-02-02T11:21:45.036Z,17.90
2019-02-02T11:22:44.958Z,17.30
2019-02-02T11:23:44.844Z,17.20
2019-02-02T11:24:44.876Z,18.00
2019-02-02T11:25:44.708Z,18.60
2019-02-02T11:26:44.682Z,19.40
2019-02-02T11:27:44.609Z,18.60
2019-02-02T11:28:44.505Z,18.30
2019-02-02T11:29:44.537Z,17.40
2019-02-02T11:30:44.505Z,19.30
2019-02-02T11:31:44.304Z,18.30
2019-02-02T11:32:44.242Z,18.40
2019-02-02T11:33:44.482Z,18.10
2019-02-02T11:34:44.114Z,18.00
2019-02-02T11:35:44.036Z,18.40
2019-02-02T11:36:44.032Z,18.30
2019-02-02T11:37:43.917Z,18.30
2019-02-02T11:38:43.851Z,18.40
2019-02-02T11:39:43.782Z,18.10
2019-02-02T11:40:43.728Z,19.10
2019-02-02T11:41:43.646Z,17.80
2019-02-02T11:42:43.572Z,18.00
2019-02-02T11:43:43.503Z,17.70
2019-02-02T11:44:43.470Z,18.60
2019-02-02T11:45:43.369Z,18.80
2019-02-02T11:46:43.304Z,18.10
2019-02-02T11:47:43.234Z,18.60
2019-02-02T11:48:43.292Z,18.50
2019-02-02T11:49:43.106Z,17.50
2019-02-02T11:50:43.043Z,17.40
2019-02-02T11:51:42.994Z,17.40
2019-02-02T11:52:42.910Z,18.40
2019-02-02T11:53:42.852Z,17.50
2019-02-02T11:54:42.769Z,17.90
2019-02-02T11:55:42.709Z,17.20
2019-02-02T11:56:42.650Z,17.00
2019-02-02T11:57:42.579Z,17.20
2019-02-02T11:58:42.509Z,17.00
2019-02-02T11:59:42.440Z,18.10
2019-02-02T12:00:42.372Z,17.70
2019-02-02T12:01:42.307Z,17.50
2019-02-02T12:02:49.064Z,18.40
2019-02-02T12:03:42.174Z,18.10
2019-02-02T12:04:42.105Z,17.10
2019-02-02T12:05:42.071Z,17.50
2019-02-02T12:06:41.976Z,16.40
2019-02-02T12:07:41.909Z,17.00
2019-02-02T12:08:41.843Z,15.70
2019-02-02T12:09:41.784Z,16.40
2019-02-02T12:10:41.711Z,15.60
2019-02-02T12:11:41.645Z,15.20
2019-02-02T12:12:42.266Z,15.70
2019-02-02T12:13:41.510Z,15.60
2019-02-02T12:14:41.455Z,14.60
2019-02-02T12:15:41.382Z,14.40
2019-02-02T12:16:41.314Z,14.30
2019-02-02T12:17:41.249Z,13.70
2019-02-02T12:18:41.182Z,13.90
2019-02-02T12:19:41.116Z,13.30
2019-02-02T12:20:41.051Z,14.00
2019-02-02T12:21:40.985Z,12.30
2019-02-02T12:22:40.951Z,10.90
2019-02-02T12:23:40.856Z,10.30
2019-02-02T12:24:40.793Z,10.70
2019-02-02T12:25:40.719Z,10.70
2019-02-02T12:26:40.665Z,10.50
2019-02-02T12:27:40.589Z,11.30
2019-02-02T12:28:40.553Z,11.10
2019-02-02T12:29:40.461Z,10.40
2019-02-02T12:30:40.395Z,10.40
2019-02-02T12:31:40.324Z,11.40
2019-02-02T12:32:40.262Z,10.70
2019-02-02T12:33:40.217Z,11.10
2019-02-02T12:34:40.144Z,11.20
2019-02-02T12:35:40.064Z,10.60
2019-02-02T12:36:39.994Z,10.50
2019-02-02T12:37:39.929Z,9.90
2019-02-02T12:38:39.864Z,10.00
2019-02-02T12:39:39.797Z,9.40
2019-02-02T12:40:39.734Z,8.10
2019-02-02T12:41:39.691Z,8.80
2019-02-02T12:42:39.605Z,8.30
2019-02-02T12:43:39.560Z,7.80
2019-02-02T12:44:39.470Z,8.10
2019-02-02T12:45:39.403Z,7.40
2019-02-02T12:46:39.340Z,6.90
2019-02-02T12:47:39.281Z,7.00
2019-02-02T12:48:39.212Z,6.90
2019-02-02T12:49:39.142Z,7.10
2019-02-02T12:50:39.096Z,7.00
2019-02-02T12:51:39.007Z,6.70
2019-02-02T12:52:38.942Z,7.30